createdAt,value
2022-10-08T00:01:00.655Z,11.95
2022-10-08T00:03:30.610Z,11.43
2022-10-08T00:06:01.976Z,12.20
2022-10-08T00:08:30.455Z,14.20
2022-10-08T00:11:00.794Z,8.50
2022-10-08T00:13:29.867Z,15.35
2022-10-08T00:15:58.624Z,12.02
2022-10-08T00:18:25.693Z,11.43
2022-10-08T00:20:52.629Z,9.32
2022-10-08T00:23:19.554Z,8.60
2022-10-08T00:25:47.233Z,15.00
2022-10-08T00:28:14.183Z,17.02
2022-10-08T00:30:41.862Z,11.60
2022-10-08T00:33:10.532Z,19.70
2022-10-08T00:35:39.613Z,20.95
2022-10-08T00:38:07.606Z,10.07
2022-10-08T00:40:44.820Z,17.75
2022-10-08T00:43:15.562Z,9.05
2022-10-08T00:45:46.380Z,15.25
2022-10-08T00:48:21.026Z,15.95
2022-10-08T00:50:48.189Z,23.08
2022-10-08T00:53:15.174Z,13.80
2022-10-08T00:55:43.969Z,20.70
2022-10-08T00:58:23.147Z,14.55
2022-10-08T01:00:51.187Z,11.25
2022-10-08T01:03:18.247Z,14.10
2022-10-08T01:05:51.298Z,15.35
2022-10-08T01:08:50.306Z,9.65
2022-10-08T01:11:44.672Z,11.52
2022-10-08T01:14:24.243Z,11.00
2022-10-08T01:17:02.971Z,11.75
2022-10-08T01:20:11.898Z,13.05
2022-10-08T01:23:10.052Z,20.15
2022-10-08T01:25:58.165Z,17.42
2022-10-08T01:28:39.027Z,12.52
2022-10-08T01:31:13.074Z,12.07
2022-10-08T01:33:47.945Z,17.58
2022-10-08T01:36:18.637Z,13.85
2022-10-08T01:38:51.453Z,8.98
2022-10-08T01:41:19.545Z,11.25
2022-10-08T01:43:57.163Z,14.82
2022-10-08T01:46:27.748Z,13.02
2022-10-08T01:49:00.855Z,13.07
2022-10-08T01:51:32.593Z,11.77
2022-10-08T01:54:03.564Z,10.02
2022-10-08T01:56:33.665Z,13.88
2022-10-08T01:59:48.260Z,10.13
2022-10-08T02:02:20.961Z,13.23
2022-10-08T02:04:49.305Z,10.40
2022-10-08T02:07:35.972Z,12.40
2022-10-08T02:10:07.542Z,10.75
2022-10-08T02:12:35.904Z,13.68
2022-10-08T02:15:05.067Z,13.57
2022-10-08T02:18:07.075Z,13.77
2022-10-08T02:20:55.577Z,16.17
2022-10-08T02:23:29.996Z,22.10
2022-10-08T02:26:02.770Z,10.85
2022-10-08T02:28:35.945Z,11.55
2022-10-08T02:31:11.795Z,13.63
2022-10-08T02:33:44.621Z,15.05
2022-10-08T02:36:16.756Z,11.75
2022-10-08T02:38:54.681Z,14.07
2022-10-08T02:41:27.669Z,12.48
2022-10-08T02:43:59.469Z,12.18
2022-10-08T02:46:29.659Z,12.68
2022-10-08T02:49:02.808Z,12.65
2022-10-08T02:51:32.826Z,12.98
2022-10-08T02:54:00.812Z,11.45
2022-10-08T02:56:34.053Z,10.93
2022-10-08T02:59:01.428Z,13.68
2022-10-08T03:01:45.016Z,15.43
2022-10-08T03:04:21.435Z,19.33
2022-10-08T03:06:49.896Z,12.57
2022-10-08T03:09:19.228Z,18.20
2022-10-08T03:11:46.973Z,16.33
2022-10-08T03:14:16.421Z,20.85
2022-10-08T03:16:46.607Z,15.65
2022-10-08T03:19:18.902Z,12.90
2022-10-08T03:21:48.501Z,16.85
2022-10-08T03:24:15.792Z,15.27
2022-10-08T03:26:42.808Z,13.20
2022-10-08T03:29:10.306Z,11.27
2022-10-08T03:31:37.210Z,15.52
2022-10-08T03:34:04.247Z,15.32
2022-10-08T03:36:31.179Z,16.90
2022-10-08T03:38:58.294Z,18.75
2022-10-08T03:41:25.701Z,18.95
2022-10-08T03:43:52.627Z,18.00
2022-10-08T03:46:19.691Z,18.42
2022-10-08T03:48:49.904Z,20.23
2022-10-08T03:51:18.614Z,19.17
2022-10-08T03:53:45.733Z,16.42
2022-10-08T03:56:19.454Z,16.95
2022-10-08T03:58:52.678Z,16.30
2022-10-08T04:01:19.575Z,18.30
2022-10-08T04:03:46.529Z,16.92
2022-10-08T04:06:13.784Z,14.82
2022-10-08T04:08:40.988Z,24.40
2022-10-08T04:11:13.757Z,18.50
2022-10-08T04:13:41.143Z,23.83
2022-10-08T04:16:14.955Z,17.45
2022-10-08T04:18:42.798Z,18.15
2022-10-08T04:21:13.501Z,19.63
2022-10-08T04:23:42.164Z,15.38
2022-10-08T04:26:10.868Z,14.30
2022-10-08T04:28:39.434Z,16.98
2022-10-08T04:31:12.058Z,15.80
2022-10-08T04:33:39.365Z,14.95
2022-10-08T04:36:15.477Z,11.68
2022-10-08T04:38:43.754Z,12.60
2022-10-08T04:41:13.429Z,13.40
2022-10-08T04:43:42.001Z,10.48
2022-10-08T04:46:11.141Z,14.02
2022-10-08T04:48:39.231Z,15.68
2022-10-08T04:51:10.623Z,9.02
2022-10-08T04:53:38.450Z,13.85
2022-10-08T04:56:19.929Z,12.85
2022-10-08T04:58:47.707Z,13.55
2022-10-08T05:01:17.342Z,13.18
2022-10-08T05:03:55.299Z,21.90
2022-10-08T05:06:27.166Z,13.48
2022-10-08T05:08:54.885Z,10.93
2022-10-08T05:11:24.444Z,8.85
2022-10-08T05:13:53.555Z,14.57
2022-10-08T05:16:20.676Z,31.73
2022-10-08T05:18:48.155Z,13.55
2022-10-08T05:21:18.579Z,8.80
2022-10-08T05:23:45.514Z,9.68
2022-10-08T05:26:41.578Z,8.13
2022-10-08T05:29:11.701Z,6.78
2022-10-08T05:31:38.755Z,15.75
2022-10-08T05:34:05.940Z,11.10
2022-10-08T05:36:33.971Z,11.50
2022-10-08T05:39:02.231Z,12.57
2022-10-08T05:41:32.384Z,10.68
2022-10-08T05:44:02.062Z,9.85
2022-10-08T05:46:30.492Z,11.13
2022-10-08T05:48:59.799Z,10.55
2022-10-08T05:51:27.757Z,8.10
2022-10-08T05:53:56.807Z,8.73
2022-10-08T05:56:25.098Z,6.43
2022-10-08T05:58:52.928Z,6.15
2022-10-08T06:01:26.119Z,9.93
2022-10-08T06:03:55.457Z,6.88
2022-10-08T06:06:24.214Z,6.20
2022-10-08T06:09:02.045Z,5.15
2022-10-08T06:11:31.382Z,8.43
2022-10-08T06:14:00.103Z,8.43
2022-10-08T06:16:28.710Z,6.63
2022-10-08T06:18:56.008Z,11.43
2022-10-08T06:21:25.108Z,10.05
2022-10-08T06:23:56.671Z,10.38
2022-10-08T06:26:27.350Z,5.10
2022-10-08T06:28:57.241Z,11.80
2022-10-08T06:31:24.685Z,8.80
2022-10-08T06:33:55.297Z,9.10
2022-10-08T06:36:24.713Z,8.57
2022-10-08T06:38:57.294Z,7.07
2022-10-08T06:41:25.163Z,5.30
2022-10-08T06:43:52.073Z,6.70
2022-10-08T06:46:19.792Z,11.60
2022-10-08T06:48:47.088Z,5.90
2022-10-08T06:51:17.273Z,6.70
2022-10-08T06:53:45.532Z,8.18
2022-10-08T06:56:15.570Z,6.43
2022-10-08T06:58:44.959Z,6.25
2022-10-08T07:01:30.302Z,7.10
2022-10-08T07:04:00.891Z,5.53
2022-10-08T07:06:27.907Z,6.03
2022-10-08T07:08:56.770Z,10.77
2022-10-08T07:11:24.870Z,5.68
2022-10-08T07:13:51.836Z,11.02
2022-10-08T07:16:21.567Z,6.55
2022-10-08T07:18:51.087Z,6.30
2022-10-08T07:21:19.751Z,7.70
2022-10-08T07:23:46.876Z,6.20
2022-10-08T07:26:17.018Z,7.90
2022-10-08T07:28:53.120Z,5.68
2022-10-08T07:31:23.515Z,4.45
2022-10-08T07:33:51.346Z,4.10
2022-10-08T07:36:20.774Z,6.80
2022-10-08T07:38:48.292Z,9.02
2022-10-08T07:41:15.367Z,5.55
2022-10-08T07:43:43.208Z,5.30
2022-10-08T07:46:12.049Z,4.20
2022-10-08T07:48:39.802Z,5.63
2022-10-08T07:51:11.833Z,4.70
2022-10-08T07:53:39.393Z,7.63
2022-10-08T07:56:07.753Z,4.80
2022-10-08T07:58:35.164Z,5.63
2022-10-08T08:01:04.323Z,3.38
2022-10-08T08:03:31.890Z,4.53
2022-10-08T08:06:10.933Z,2.25
2022-10-08T08:08:40.004Z,7.00
2022-10-08T08:11:09.095Z,4.05
2022-10-08T08:13:37.769Z,6.97
2022-10-08T08:16:07.853Z,3.92
2022-10-08T08:18:37.967Z,3.05
2022-10-08T08:21:07.972Z,5.18
2022-10-08T08:23:37.273Z,11.43
2022-10-08T08:26:06.979Z,7.95
2022-10-08T08:28:34.295Z,11.00
2022-10-08T08:31:21.366Z,5.22
2022-10-08T08:33:51.120Z,7.10
2022-10-08T08:36:20.389Z,8.43
2022-10-08T08:38:47.387Z,4.55
2022-10-08T08:41:20.948Z,7.10
2022-10-08T08:43:48.422Z,7.28
2022-10-08T08:46:21.192Z,4.50
2022-10-08T08:48:50.164Z,2.88
2022-10-08T08:51:17.158Z,7.00
2022-10-08T08:53:44.313Z,6.88
2022-10-08T08:56:16.139Z,6.55
2022-10-08T08:58:51.650Z,4.25
2022-10-08T09:01:31.147Z,8.85
2022-10-08T09:04:06.733Z,6.90
2022-10-08T09:06:35.578Z,2.33
2022-10-08T09:09:31.831Z,4.38
2022-10-08T09:11:59.155Z,4.43
2022-10-08T09:14:37.484Z,8.52
2022-10-08T09:17:21.599Z,3.20
2022-10-08T09:19:49.717Z,4.70
2022-10-08T09:22:40.699Z,4.50
2022-10-08T09:25:15.388Z,3.10
2022-10-08T09:28:00.318Z,6.22
2022-10-08T09:30:33.229Z,3.42
2022-10-08T09:33:04.966Z,2.30
2022-10-08T09:35:34.534Z,4.13
2022-10-08T09:38:05.695Z,8.52
2022-10-08T09:40:33.111Z,3.35
2022-10-08T09:43:12.604Z,5.38
2022-10-08T09:45:46.536Z,9.15
2022-10-08T09:48:22.410Z,9.02
2022-10-08T09:50:51.632Z,8.85
2022-10-08T09:53:20.322Z,9.63
2022-10-08T09:55:55.203Z,6.68
2022-10-08T09:58:22.581Z,6.80
2022-10-08T10:01:07.680Z,3.38
2022-10-08T10:03:35.588Z,5.65
2022-10-08T10:06:02.822Z,5.05
2022-10-08T10:08:54.527Z,5.05
2022-10-08T10:11:28.991Z,10.85
2022-10-08T10:14:01.624Z,8.43
2022-10-08T10:16:40.288Z,4.43
2022-10-08T10:19:16.229Z,3.90
2022-10-08T10:21:59.694Z,3.47
2022-10-08T10:24:45.866Z,3.60
2022-10-08T10:27:19.624Z,2.53
2022-10-08T10:30:15.915Z,7.10
2022-10-08T10:33:01.875Z,3.75
2022-10-08T10:35:30.962Z,5.90
2022-10-08T10:38:29.262Z,3.42
2022-10-08T10:41:14.232Z,6.32
2022-10-08T10:44:02.597Z,8.15
2022-10-08T10:46:39.861Z,4.90
2022-10-08T10:49:17.483Z,10.85
2022-10-08T10:52:08.401Z,8.45
2022-10-08T10:54:57.125Z,7.80
2022-10-08T10:57:47.796Z,9.50
2022-10-08T11:00:19.185Z,10.93
2022-10-08T11:03:07.787Z,6.93
2022-10-08T11:05:36.846Z,9.77
2022-10-08T11:08:03.673Z,2.75
2022-10-08T11:10:32.101Z,4.80
2022-10-08T11:13:17.964Z,11.35
2022-10-08T11:16:05.484Z,11.55
2022-10-08T11:18:53.086Z,6.18
2022-10-08T11:21:30.997Z,2.88
2022-10-08T11:24:13.833Z,2.58
2022-10-08T11:27:03.659Z,5.78
2022-10-08T11:29:49.164Z,3.85
2022-10-08T11:32:19.464Z,5.45
2022-10-08T11:35:21.680Z,2.72
2022-10-08T11:38:12.217Z,4.65
2022-10-08T11:40:49.323Z,4.68
2022-10-08T11:43:28.316Z,6.22
2022-10-08T11:46:33.598Z,3.15
2022-10-08T11:51:31.962Z,9.68
2022-10-08T11:54:01.626Z,13.95
2022-10-08T11:56:29.224Z,9.05
2022-10-08T11:59:00.128Z,3.92
2022-10-08T12:01:27.110Z,6.95
2022-10-08T12:04:19.862Z,4.88
2022-10-08T12:06:48.856Z,6.38
2022-10-08T12:09:23.832Z,10.50
2022-10-08T12:11:53.097Z,9.48
2022-10-08T12:14:19.946Z,4.25
2022-10-08T12:17:07.531Z,5.18
2022-10-08T12:19:34.398Z,3.25
2022-10-08T12:22:25.569Z,5.78
2022-10-08T12:24:57.266Z,8.55
2022-10-08T12:27:31.629Z,10.70
2022-10-08T12:30:04.511Z,3.78
2022-10-08T12:32:51.197Z,5.47
2022-10-08T12:35:30.075Z,5.97
2022-10-08T12:38:23.158Z,9.85
2022-10-08T12:40:56.303Z,2.28
2022-10-08T12:44:00.370Z,4.10
2022-10-08T12:46:34.328Z,5.13
2022-10-08T12:49:22.119Z,8.80
2022-10-08T12:52:21.252Z,6.35
2022-10-08T12:54:57.512Z,4.65
2022-10-08T12:57:30.320Z,4.15
2022-10-08T13:00:10.380Z,7.72
2022-10-08T13:02:40.353Z,9.10
2022-10-08T13:05:45.425Z,9.40
2022-10-08T13:10:45.058Z,6.38
2022-10-08T13:13:35.693Z,9.35
2022-10-08T13:16:04.417Z,7.13
2022-10-08T13:18:33.259Z,4.65
2022-10-08T13:21:02.844Z,5.07
2022-10-08T13:23:42.977Z,5.90
2022-10-08T13:26:37.863Z,6.20
2022-10-08T13:29:24.095Z,6.03
2022-10-08T13:31:59.996Z,6.45
2022-10-08T13:34:31.576Z,9.45
2022-10-08T13:37:01.881Z,4.55
2022-10-08T13:39:54.518Z,4.35
2022-10-08T13:42:28.187Z,5.57
2022-10-08T13:44:55.497Z,4.68
2022-10-08T13:47:23.464Z,3.08
2022-10-08T13:49:50.714Z,2.95
2022-10-08T13:52:24.013Z,4.88
2022-10-08T13:54:58.925Z,9.35
2022-10-08T13:57:25.985Z,4.85
2022-10-08T13:59:52.994Z,7.38
2022-10-08T14:02:19.938Z,6.75
2022-10-08T14:04:47.310Z,6.65
2022-10-08T14:07:31.248Z,5.38
2022-10-08T14:10:00.523Z,2.70
2022-10-08T14:12:32.372Z,8.57
2022-10-08T14:14:59.902Z,4.07
2022-10-08T14:17:27.318Z,10.02
2022-10-08T14:19:57.363Z,13.02
2022-10-08T14:22:24.366Z,5.07
2022-10-08T14:24:51.771Z,10.60
2022-10-08T14:27:18.695Z,4.07
2022-10-08T14:29:45.568Z,11.02
2022-10-08T14:32:12.526Z,4.45
2022-10-08T14:34:39.489Z,5.25
2022-10-08T14:37:06.900Z,7.38
2022-10-08T14:39:33.935Z,12.20
2022-10-08T14:42:00.813Z,6.57
2022-10-08T14:44:27.790Z,9.05
2022-10-08T14:46:54.909Z,16.65
2022-10-08T14:49:22.351Z,8.43
2022-10-08T14:51:49.296Z,4.68
2022-10-08T14:54:18.038Z,6.15
2022-10-08T14:56:46.183Z,4.13
2022-10-08T14:59:13.416Z,5.20
2022-10-08T15:01:40.392Z,4.85
2022-10-08T15:04:07.961Z,11.63
2022-10-08T15:06:35.071Z,9.48
2022-10-08T15:09:02.118Z,16.08
2022-10-08T15:11:29.157Z,11.27
2022-10-08T15:13:56.399Z,10.57
2022-10-08T15:16:23.349Z,5.97
2022-10-08T15:18:50.277Z,13.40
2022-10-08T15:21:18.329Z,7.28
2022-10-08T15:23:45.325Z,6.43
2022-10-08T15:26:17.414Z,7.38
2022-10-08T15:28:46.418Z,9.38
2022-10-08T15:31:17.830Z,6.93
2022-10-08T15:33:47.615Z,10.95
2022-10-08T15:36:19.557Z,8.32
2022-10-08T15:38:47.501Z,9.95
2022-10-08T15:41:17.526Z,11.07
2022-10-08T15:43:44.852Z,15.20
2022-10-08T15:46:16.260Z,8.73
2022-10-08T15:48:51.373Z,7.68
2022-10-08T15:53:45.030Z,22.25
2022-10-08T15:56:14.791Z,12.85
2022-10-08T15:58:51.148Z,16.90
2022-10-08T16:01:22.136Z,18.70
2022-10-08T16:03:51.094Z,10.85
2022-10-08T16:06:20.756Z,16.23
2022-10-08T16:08:47.705Z,15.48
2022-10-08T16:11:17.258Z,12.30
2022-10-08T16:13:46.246Z,19.42
2022-10-08T16:16:15.313Z,15.73
2022-10-08T16:18:43.167Z,24.33
2022-10-08T16:21:11.322Z,22.02
2022-10-08T16:23:38.647Z,17.30
2022-10-08T16:26:12.110Z,26.55
2022-10-08T16:28:40.941Z,37.75
2022-10-08T16:31:08.940Z,24.00
2022-10-08T16:33:36.070Z,17.10
2022-10-08T16:36:06.096Z,23.50
2022-10-08T16:38:34.735Z,27.55
2022-10-08T16:41:25.840Z,26.85
2022-10-08T16:43:55.506Z,18.00
2022-10-08T16:46:33.826Z,16.00
2022-10-08T16:49:01.894Z,19.15
2022-10-08T16:51:31.695Z,20.80
2022-10-08T16:54:03.207Z,18.98
2022-10-08T16:56:33.176Z,14.40
2022-10-08T16:59:03.911Z,21.85
2022-10-08T17:01:31.088Z,16.20
2022-10-08T17:03:58.498Z,8.95
2022-10-08T17:06:27.900Z,13.95
2022-10-08T17:08:55.437Z,15.20
2022-10-08T17:11:22.460Z,20.17
2022-10-08T17:13:51.999Z,14.52
2022-10-08T17:16:21.394Z,17.10
2022-10-08T17:18:51.623Z,16.42
2022-10-08T17:21:18.753Z,32.00
2022-10-08T17:23:46.287Z,24.55
2022-10-08T17:26:16.382Z,19.77
2022-10-08T17:28:45.698Z,27.25
2022-10-08T17:31:18.857Z,16.33
2022-10-08T17:33:46.531Z,12.50
2022-10-08T17:36:28.134Z,16.83
2022-10-08T17:38:57.750Z,11.98
2022-10-08T17:41:30.161Z,15.13
2022-10-08T17:43:59.580Z,15.65
2022-10-08T17:46:29.169Z,13.63
2022-10-08T17:48:57.008Z,18.88
2022-10-08T17:51:26.219Z,10.00
2022-10-08T17:53:55.427Z,6.90
2022-10-08T17:56:23.473Z,18.50
2022-10-08T17:58:50.783Z,14.30
2022-10-08T18:01:25.917Z,10.15
2022-10-08T18:06:22.910Z,16.15
2022-10-08T18:08:55.200Z,17.17
2022-10-08T18:11:22.727Z,15.40
2022-10-08T18:13:49.914Z,8.80
2022-10-08T18:16:18.195Z,8.77
2022-10-08T18:18:46.045Z,8.85
2022-10-08T18:21:14.698Z,10.27
2022-10-08T18:23:43.013Z,10.23
2022-10-08T18:26:17.599Z,10.93
2022-10-08T18:28:46.405Z,7.80
2022-10-08T18:31:14.678Z,11.13
2022-10-08T18:33:43.889Z,6.72
2022-10-08T18:36:17.191Z,18.55
2022-10-08T18:38:46.454Z,11.68
2022-10-08T18:41:17.257Z,10.88
2022-10-08T18:43:45.534Z,17.05
2022-10-08T18:46:14.125Z,24.52
2022-10-08T18:48:41.300Z,11.10
2022-10-08T18:51:14.103Z,14.57
2022-10-08T18:53:42.833Z,13.10
2022-10-08T18:56:15.892Z,9.05
2022-10-08T18:58:43.103Z,17.52
2022-10-08T19:01:19.103Z,13.82
2022-10-08T19:03:48.319Z,10.23
2022-10-08T19:06:17.054Z,4.63
2022-10-08T19:08:44.158Z,7.78
2022-10-08T19:11:20.043Z,10.02
2022-10-08T19:13:47.310Z,8.30
2022-10-08T19:16:15.615Z,8.85
2022-10-08T19:18:44.897Z,5.45
2022-10-08T19:21:13.308Z,7.75
2022-10-08T19:23:40.430Z,4.75
2022-10-08T19:26:07.548Z,9.80
2022-10-08T19:28:37.172Z,10.73
2022-10-08T19:31:27.631Z,11.63
2022-10-08T19:33:57.289Z,11.95
2022-10-08T19:36:25.632Z,13.32
2022-10-08T19:39:20.320Z,11.00
2022-10-08T19:41:47.301Z,10.25
2022-10-08T19:44:14.653Z,8.88
2022-10-08T19:46:41.756Z,14.60
2022-10-08T19:49:10.005Z,10.52
2022-10-08T19:51:37.587Z,11.02
2022-10-08T19:54:05.075Z,11.02
2022-10-08T19:56:32.110Z,23.65
2022-10-08T19:58:59.888Z,8.82
2022-10-08T20:01:30.407Z,8.88
2022-10-08T20:04:00.303Z,10.35
2022-10-08T20:06:30.190Z,20.00
2022-10-08T20:08:59.955Z,12.68
2022-10-08T20:11:28.555Z,8.82
2022-10-08T20:13:55.569Z,16.73
2022-10-08T20:16:25.043Z,8.65
2022-10-08T20:19:19.464Z,10.02
2022-10-08T20:21:47.737Z,19.63
2022-10-08T20:24:18.331Z,14.90
2022-10-08T20:26:45.947Z,12.25
2022-10-08T20:29:19.432Z,10.85
2022-10-08T20:31:55.003Z,9.32
2022-10-08T20:34:26.984Z,23.35
2022-10-08T20:36:54.105Z,7.93
2022-10-08T20:39:22.276Z,12.45
2022-10-08T20:41:50.109Z,9.30
2022-10-08T20:44:17.439Z,10.18
2022-10-08T20:46:44.829Z,11.40
2022-10-08T20:49:13.187Z,14.90
2022-10-08T20:51:41.546Z,12.35
2022-10-08T20:54:14.074Z,18.85
2022-10-08T20:56:41.883Z,15.00
2022-10-08T20:59:10.637Z,16.25
2022-10-08T21:01:38.886Z,14.27
2022-10-08T21:04:06.725Z,13.63
2022-10-08T21:06:48.507Z,12.65
2022-10-08T21:09:17.450Z,18.58
2022-10-08T21:11:47.768Z,8.65
2022-10-08T21:14:20.086Z,12.02
2022-10-08T21:16:47.306Z,13.80
2022-10-08T21:19:19.201Z,10.23
2022-10-08T21:21:46.091Z,10.82
2022-10-08T21:24:12.992Z,10.95
2022-10-08T21:26:42.271Z,10.80
2022-10-08T21:29:11.609Z,11.25
2022-10-08T21:31:39.969Z,10.40
2022-10-08T21:34:07.223Z,11.35
2022-10-08T21:36:38.860Z,11.50
2022-10-08T21:39:07.966Z,15.27
2022-10-08T21:41:37.077Z,20.75
2022-10-08T21:44:07.073Z,17.17
2022-10-08T21:46:37.054Z,12.13
2022-10-08T21:49:06.646Z,13.02
2022-10-08T21:51:35.429Z,15.13
2022-10-08T21:54:04.290Z,24.13
2022-10-08T21:56:34.451Z,27.08
2022-10-08T21:59:02.750Z,26.23
2022-10-08T22:01:31.433Z,19.80
2022-10-08T22:04:02.218Z,21.42
2022-10-08T22:06:31.890Z,18.33
2022-10-08T22:08:59.951Z,18.55
2022-10-08T22:11:27.333Z,9.45
2022-10-08T22:13:54.363Z,10.00
2022-10-08T22:16:22.862Z,11.65
2022-10-08T22:18:49.801Z,13.27
2022-10-08T22:21:19.468Z,9.85
2022-10-08T22:23:47.519Z,8.43
2022-10-08T22:26:17.096Z,9.80
2022-10-08T22:28:44.469Z,12.15
2022-10-08T22:31:13.478Z,9.30
2022-10-08T22:33:40.988Z,14.75
2022-10-08T22:36:14.213Z,12.13
2022-10-08T22:38:42.475Z,12.68
2022-10-08T22:41:15.518Z,20.50
2022-10-08T22:43:42.933Z,19.60
2022-10-08T22:46:13.046Z,13.70
2022-10-08T22:48:40.303Z,16.67
2022-10-08T22:51:10.759Z,12.77
2022-10-08T22:53:38.168Z,20.02
2022-10-08T22:56:06.922Z,8.82
2022-10-08T22:58:34.998Z,8.18
2022-10-08T23:01:04.974Z,11.10
2022-10-08T23:03:32.007Z,11.63
2022-10-08T23:06:02.911Z,9.95
2022-10-08T23:08:29.919Z,11.07
2022-10-08T23:10:58.178Z,12.25
2022-10-08T23:13:25.947Z,12.25
2022-10-08T23:16:04.738Z,9.13
2022-10-08T23:18:33.488Z,13.27
2022-10-08T23:21:04.994Z,8.52
2022-10-08T23:23:33.033Z,11.35
2022-10-08T23:26:02.250Z,11.68
2022-10-08T23:28:30.868Z,12.75
2022-10-08T23:31:10.658Z,12.65
2022-10-08T23:33:39.520Z,7.85
2022-10-08T23:36:08.483Z,10.77
2022-10-08T23:38:37.023Z,9.43
2022-10-08T23:41:06.810Z,7.63
2022-10-08T23:43:38.696Z,9.90
2022-10-08T23:46:07.014Z,11.65
2022-10-08T23:48:34.574Z,15.75
2022-10-08T23:51:02.268Z,11.75
2022-10-08T23:53:29.626Z,10.05
2022-10-08T23:55:56.677Z,8.55
2022-10-08T23:58:23.577Z,21.48
